Time;durP1;ratioP1;P1;durP2;ratioP2;P2;SDS_P1;SDS_P2;PMS_P1;PMS_P2;Temp;Humidity;BMP_temperature;BMP_pressure;BME280_temperature;BME280_humidity;BME280_pressure;Samples;Min_cycle;Max_cycle;Signal;HPM_P1;HPM_P2
2021/07/12 00:01:46;;;;;;;3.40;2.70;;;13.90;89.70;;;;;;4967374;28;20043;-73
2021/07/12 00:04:13;;;;;;;3.65;2.53;;;13.90;90.00;;;;;;4951679;28;20382;-73
2021/07/12 00:06:38;;;;;;;3.92;1.80;;;13.90;89.20;;;;;;4969051;28;20023;-72
2021/07/12 00:09:05;;;;;;;3.22;2.22;;;13.90;89.30;;;;;;4968799;28;20038;-72
2021/07/12 00:11:32;;;;;;;3.85;2.30;;;13.90;89.50;;;;;;4950100;28;20082;-72
2021/07/12 00:13:58;;;;;;;2.20;2.00;;;13.90;89.60;;;;;;4965572;28;20432;-72
2021/07/12 00:16:24;;;;;;;2.70;1.83;;;13.90;89.50;;;;;;4967238;28;20110;-73
2021/07/12 00:18:50;;;;;;;4.32;1.60;;;13.80;89.20;;;;;;4965948;28;20049;-72
2021/07/12 00:21:16;;;;;;;2.17;1.95;;;13.80;89.50;;;;;;4947829;28;20031;-72
2021/07/12 00:23:42;;;;;;;3.35;1.95;;;13.70;89.40;;;;;;4967242;28;20042;-73
2021/07/12 00:26:08;;;;;;;4.25;1.90;;;13.70;89.30;;;;;;4962869;28;20027;-73
2021/07/12 00:28:33;;;;;;;1.80;1.70;;;13.70;89.00;;;;;;4968061;28;20959;-72
2021/07/12 00:30:59;;;;;;;3.78;2.22;;;13.70;89.30;;;;;;4967946;28;20031;-72
2021/07/12 00:33:25;;;;;;;5.45;2.10;;;13.70;89.60;;;;;;4952061;28;20033;-72
2021/07/12 00:35:52;;;;;;;3.10;2.00;;;13.70;89.70;;;;;;4967897;28;20019;-72
2021/07/12 00:38:17;;;;;;;7.65;2.20;;;13.60;89.70;;;;;;4950380;28;20086;-73
2021/07/12 00:40:43;;;;;;;2.20;2.00;;;13.50;89.60;;;;;;4965732;28;20138;-72
2021/07/12 00:43:09;;;;;;;4.72;1.95;;;13.40;89.60;;;;;;4965032;28;20117;-70
2021/07/12 00:45:37;;;;;;;2.70;2.10;;;13.30;90.10;;;;;;4966894;28;20710;-72
2021/07/12 00:48:05;;;;;;;2.17;1.90;;;13.30;90.30;;;;;;4956297;28;20038;-72
2021/07/12 00:50:33;;;;;;;2.55;2.03;;;13.20;90.50;;;;;;4951564;28;20027;-72
2021/07/12 00:52:59;;;;;;;;;;;13.20;90.40;;;;;;4968494;28;20031;-72
2021/07/12 00:55:29;;;;;;;4.10;1.80;;;13.20;90.20;;;;;;4966564;28;19916;-72
2021/07/12 00:57:55;;;;;;;3.13;1.90;;;13.30;90.10;;;;;;4967256;28;20039;-72
2021/07/12 01:00:23;;;;;;;2.70;2.03;;;13.30;90.20;;;;;;4966135;28;20131;-71
2021/07/12 01:02:49;;;;;;;;;;;13.40;90.10;;;;;;4954383;28;20077;-72
2021/07/12 01:05:18;;;;;;;2.90;1.77;;;13.30;90.00;;;;;;4967944;28;19910;-72
2021/07/12 01:07:44;;;;;;;2.25;1.98;;;13.20;90.20;;;;;;4946691;28;21690;-71
2021/07/12 01:10:12;;;;;;;3.28;1.70;;;13.20;90.30;;;;;;4967566;28;20097;-73
2021/07/12 01:12:45;;;;;;;1.77;1.67;;;13.30;90.20;;;;;;4961068;28;20031;-73
2021/07/12 01:15:19;;;;;;;6.55;1.88;;;13.30;89.80;;;;;;4966234;28;20110;-72
2021/07/12 01:18:01;;;;;;;2.08;1.98;;;13.30;90.20;;;;;;4965544;28;20392;-73
2021/07/12 01:20:46;;;;;;;2.38;1.90;;;13.30;89.80;;;;;;4966293;28;20023;-77
2021/07/12 01:23:20;;;;;;;1.60;1.50;;;13.30;90.00;;;;;;4964677;28;20042;-72
2021/07/12 01:26:23;;;;;;;29.92;3.17;;;13.30;89.00;;;;;;4964440;28;20041;-73
2021/07/12 01:29:01;;;;;;;6.07;2.03;;;13.30;90.10;;;;;;4950669;28;20039;-73
2021/07/12 01:32:06;;;;;;;4.63;2.15;;;13.30;90.40;;;;;;4965627;28;20510;-73
2021/07/12 01:35:04;;;;;;;1.60;1.50;;;13.30;90.40;;;;;;4966583;28;20080;-73
2021/07/12 01:37:54;;;;;;;2.88;2.10;;;13.30;90.30;;;;;;4949479;28;20038;-72
2021/07/12 01:40:45;;;;;;;5.22;1.88;;;13.30;90.40;;;;;;4970420;28;20031;-71
2021/07/12 01:43:43;;;;;;;2.75;1.80;;;13.30;90.20;;;;;;4966946;28;20046;-71
2021/07/12 01:46:39;;;;;;;8.70;2.15;;;13.20;90.10;;;;;;4971824;28;20394;-74
2021/07/12 01:49:12;;;;;;;30.67;3.22;;;13.20;90.20;;;;;;4968993;28;20059;-73
2021/07/12 01:51:49;;;;;;;6.57;2.22;;;13.10;90.10;;;;;;4953975;28;20023;-73
2021/07/12 01:54:37;;;;;;;8.43;1.92;;;13.00;90.30;;;;;;4970768;28;20022;-72
2021/07/12 01:57:11;;;;;;;2.90;1.95;;;13.00;90.60;;;;;;4969235;28;20027;-72
2021/07/12 01:59:47;;;;;;;2.15;1.95;;;13.00;90.50;;;;;;4951288;28;20457;-72
2021/07/12 02:02:14;;;;;;;3.00;2.05;;;13.00;90.60;;;;;;4951400;28;20070;-72
2021/07/12 02:04:42;;;;;;;2.57;2.23;;;13.00;90.60;;;;;;4970574;28;20109;-72
2021/07/12 02:07:12;;;;;;;2.90;2.05;;;12.90;90.60;;;;;;4970444;28;20031;-72
2021/07/12 02:09:38;;;;;;;2.30;2.10;;;12.90;90.30;;;;;;4970030;28;20026;-72
2021/07/12 02:12:05;;;;;;;9.10;2.20;;;12.90;90.10;;;;;;4970623;28;20066;-72
2021/07/12 02:14:32;;;;;;;5.65;2.10;;;13.00;90.10;;;;;;4966843;28;20035;-72
2021/07/12 02:17:01;;;;;;;18.98;2.70;;;13.00;90.10;;;;;;4949449;28;20027;-72
2021/07/12 02:19:31;;;;;;;2.35;2.05;;;13.00;90.20;;;;;;4969150;28;20097;-72
2021/07/12 02:21:58;;;;;;;1.75;1.60;;;13.00;90.30;;;;;;4956010;28;20051;-72
2021/07/12 02:24:25;;;;;;;8.13;1.77;;;13.00;90.20;;;;;;4967697;28;20022;-73
2021/07/12 02:26:51;;;;;;;1.48;1.38;;;12.80;89.80;;;;;;4971094;28;20381;-72
2021/07/12 02:29:19;;;;;;;2.35;1.45;;;12.70;90.20;;;;;;4967880;28;20026;-73
2021/07/12 02:31:46;;;;;;;1.60;1.50;;;12.70;90.60;;;;;;4969913;28;20047;-71
2021/07/12 02:34:13;;;;;;;1.48;1.33;;;12.80;90.70;;;;;;4958972;28;20030;-72
2021/07/12 02:36:39;;;;;;;2.75;1.45;;;12.80;90.90;;;;;;4952632;28;20027;-71
2021/07/12 02:39:08;;;;;;;14.82;1.83;;;12.80;91.00;;;;;;4969410;28;20031;-73
2021/07/12 02:41:34;;;;;;;13.82;2.05;;;12.70;90.30;;;;;;4969953;28;20054;-71
2021/07/12 02:44:02;;;;;;;6.13;2.05;;;12.70;90.40;;;;;;4969807;28;20447;-71
2021/07/12 02:46:29;;;;;;;39.72;3.10;;;12.70;90.20;;;;;;4959086;28;20019;-72
2021/07/12 02:48:55;;;;;;;1.47;1.37;;;12.70;90.20;;;;;;4968653;28;20031;-71
2021/07/12 02:51:30;;;;;;;1.63;1.52;;;12.50;90.50;;;;;;4971145;28;20289;-72
2021/07/12 02:54:01;;;;;;;1.70;1.60;;;12.60;90.60;;;;;;4951197;28;20027;-72
2021/07/12 02:56:27;;;;;;;1.88;1.75;;;12.50;90.40;;;;;;4970576;28;20033;-73
2021/07/12 02:58:52;;;;;;;2.08;1.88;;;12.60;90.40;;;;;;4966631;28;20039;-72
2021/07/12 03:01:18;;;;;;;1.83;1.73;;;12.50;90.30;;;;;;4967014;28;20039;-71
2021/07/12 03:03:44;;;;;;;3.35;1.92;;;12.50;90.10;;;;;;4970617;28;20085;-73
2021/07/12 03:06:12;;;;;;;2.15;1.95;;;12.50;90.10;;;;;;4950973;28;20073;-72
2021/07/12 03:09:07;;;;;;;2.13;1.92;;;12.40;90.20;;;;;;4969407;28;20510;-72
2021/07/12 03:11:51;;;;;;;4.18;2.28;;;12.30;90.30;;;;;;4968113;28;20440;-72
2021/07/12 03:14:20;;;;;;;3.03;2.00;;;12.30;90.50;;;;;;4949234;28;20027;-72
2021/07/12 03:16:50;;;;;;;2.83;2.10;;;12.40;90.50;;;;;;4954021;28;20144;-73
2021/07/12 03:19:24;;;;;;;10.75;1.92;;;12.40;90.40;;;;;;4970008;28;20553;-72
2021/07/12 03:21:52;;;;;;;2.83;1.70;;;12.30;90.50;;;;;;4951383;28;20034;-73
2021/07/12 03:24:19;;;;;;;8.10;2.70;;;12.30;90.50;;;;;;4966312;28;20027;-73
2021/07/12 03:26:47;;;;;;;2.00;1.80;;;12.40;90.50;;;;;;4967730;28;20027;-72
2021/07/12 03:29:15;;;;;;;2.00;1.80;;;12.30;90.40;;;;;;4969233;28;20110;-72
2021/07/12 03:31:42;;;;;;;2.80;2.00;;;12.30;90.40;;;;;;4952008;28;20047;-72
2021/07/12 03:34:10;;;;;;;2.65;2.13;;;12.30;90.30;;;;;;4952311;28;20023;-72
2021/07/12 03:36:37;;;;;;;3.08;2.15;;;12.30;90.30;;;;;;4969344;28;20038;-72
2021/07/12 03:39:05;;;;;;;2.38;1.83;;;12.30;90.40;;;;;;4967208;28;20041;-72
2021/07/12 03:41:31;;;;;;;3.13;1.60;;;12.30;90.50;;;;;;4966959;28;20110;-72
2021/07/12 03:43:59;;;;;;;1.80;1.70;;;12.30;90.40;;;;;;4968527;28;20068;-72
2021/07/12 03:46:24;;;;;;;2.22;2.00;;;12.30;90.30;;;;;;4968948;28;20079;-72
2021/07/12 03:48:51;;;;;;;4.30;2.10;;;12.40;90.20;;;;;;4967753;28;20110;-72
2021/07/12 03:51:21;;;;;;;1.65;1.50;;;12.40;90.20;;;;;;4950944;28;20030;-72
2021/07/12 03:53:46;;;;;;;3.00;1.30;;;12.40;90.20;;;;;;4952194;28;20406;-73
2021/07/12 03:56:12;;;;;;;1.10;1.10;;;12.40;90.30;;;;;;4969363;28;20632;-71
2021/07/12 03:58:38;;;;;;;1.10;1.10;;;12.40;90.40;;;;;;4951443;28;20489;-73
2021/07/12 04:01:04;;;;;;;1.05;1.05;;;12.50;90.50;;;;;;4955372;28;20461;-72
2021/07/12 04:03:30;;;;;;;2.13;0.95;;;12.40;90.40;;;;;;4969533;28;20037;-73
2021/07/12 04:05:56;;;;;;;3.25;1.65;;;12.50;90.60;;;;;;4968915;28;20594;-73
2021/07/12 04:08:21;;;;;;;6.28;1.50;;;12.40;90.60;;;;;;4968191;28;20034;-73
2021/07/12 04:10:47;;;;;;;2.80;1.23;;;12.30;90.20;;;;;;4969814;28;20034;-74
2021/07/12 04:13:13;;;;;;;19.40;2.30;;;12.10;90.40;;;;;;4969588;28;20053;-73
2021/07/12 04:15:39;;;;;;;14.32;2.30;;;12.20;90.90;;;;;;4950247;28;20121;-73
2021/07/12 04:18:06;;;;;;;17.27;2.38;;;12.10;91.20;;;;;;4952102;28;20022;-72
2021/07/12 04:20:33;;;;;;;61.17;5.40;;;12.10;91.40;;;;;;4969074;28;20557;-72
2021/07/12 04:22:59;;;;;;;2.13;1.92;;;12.10;91.60;;;;;;4955493;28;20031;-72
2021/07/12 04:25:26;;;;;;;4.30;1.42;;;12.10;91.70;;;;;;4968221;28;20019;-72
2021/07/12 04:27:52;;;;;;;1.38;1.17;;;12.20;91.70;;;;;;4948594;28;20022;-72
2021/07/12 04:30:19;;;;;;;1.13;1.13;;;12.20;91.80;;;;;;4967611;28;20047;-73
2021/07/12 04:32:44;;;;;;;1.30;1.20;;;12.30;91.90;;;;;;4968532;28;20043;-73
2021/07/12 04:35:13;;;;;;;0.95;0.95;;;12.40;92.00;;;;;;4968698;28;20109;-72
2021/07/12 04:37:39;;;;;;;1.17;1.17;;;12.50;92.00;;;;;;4949493;28;20030;-72
2021/07/12 04:40:05;;;;;;;2.00;1.20;;;12.60;92.00;;;;;;4954319;28;20442;-72
2021/07/12 04:42:31;;;;;;;1.75;1.30;;;12.70;91.80;;;;;;4965881;28;20039;-72
2021/07/12 04:44:57;;;;;;;1.42;1.33;;;12.80;91.90;;;;;;4965875;28;20081;-72
2021/07/12 04:47:23;;;;;;;1.48;1.35;;;12.90;92.00;;;;;;4966949;28;20424;-73
2021/07/12 04:49:49;;;;;;;2.13;1.70;;;13.00;92.00;;;;;;4949085;28;20067;-72
2021/07/12 04:52:15;;;;;;;1.98;1.73;;;13.10;91.90;;;;;;4955260;28;20065;-71
2021/07/12 04:54:42;;;;;;;2.58;1.70;;;13.10;91.80;;;;;;4967589;28;20168;-73
2021/07/12 04:57:08;;;;;;;2.00;1.80;;;13.20;91.80;;;;;;4951171;28;20043;-74
2021/07/12 04:59:40;;;;;;;2.17;1.80;;;13.30;91.90;;;;;;4967894;28;20456;-71
2021/07/12 05:02:12;;;;;;;2.67;1.92;;;13.30;91.70;;;;;;4945582;28;20043;-71
2021/07/12 05:04:38;;;;;;;2.15;1.77;;;13.40;91.60;;;;;;4966699;28;20536;-72
2021/07/12 05:07:05;;;;;;;2.42;1.80;;;13.40;91.50;;;;;;4949436;28;20066;-71
2021/07/12 05:09:31;;;;;;;2.55;2.10;;;13.50;91.50;;;;;;4951925;28;20037;-72
2021/07/12 05:11:58;;;;;;;2.03;1.83;;;13.50;91.50;;;;;;4971098;28;20117;-71
2021/07/12 05:14:26;;;;;;;1.98;1.85;;;13.60;91.70;;;;;;4971284;28;20536;-72
2021/07/12 05:16:52;;;;;;;1.80;1.60;;;13.60;91.70;;;;;;4954162;28;20031;-72
2021/07/12 05:19:18;;;;;;;4.45;2.60;;;13.70;91.70;;;;;;4954584;28;20041;-72
2021/07/12 05:21:45;;;;;;;8.85;5.78;;;13.80;92.40;;;;;;4969838;28;20715;-72
2021/07/12 05:24:11;;;;;;;9.73;5.20;;;13.80;93.40;;;;;;4971748;28;20551;-72
2021/07/12 05:26:38;;;;;;;7.32;5.38;;;13.80;93.60;;;;;;4971295;28;20773;-73
2021/07/12 05:29:03;;;;;;;10.30;5.32;;;13.90;93.80;;;;;;4955488;28;20030;-72
2021/07/12 05:31:29;;;;;;;6.93;5.32;;;13.80;93.80;;;;;;4969160;28;20049;-72
2021/07/12 05:33:55;;;;;;;9.80;5.90;;;13.90;94.00;;;;;;4970718;28;20037;-71
2021/07/12 05:36:20;;;;;;;6.32;4.72;;;13.90;94.10;;;;;;4970485;28;20038;-72
2021/07/12 05:38:46;;;;;;;6.93;5.22;;;14.00;94.40;;;;;;4970684;28;20027;-70
2021/07/12 05:41:12;;;;;;;8.15;5.93;;;14.00;94.10;;;;;;4950776;28;20023;-71
2021/07/12 05:43:37;;;;;;;9.05;5.47;;;14.10;94.00;;;;;;4946583;28;20553;-70
2021/07/12 05:46:04;;;;;;;7.85;5.07;;;14.00;93.80;;;;;;4953393;28;20069;-71
2021/07/12 05:48:30;;;;;;;7.38;5.03;;;14.10;94.00;;;;;;4969268;28;20035;-72
2021/07/12 05:50:56;;;;;;;7.20;5.18;;;14.10;94.20;;;;;;4969349;28;20030;-72
2021/07/12 05:53:21;;;;;;;7.22;5.05;;;14.20;94.30;;;;;;4953787;28;20692;-71
2021/07/12 05:55:47;;;;;;;6.35;4.70;;;14.30;94.50;;;;;;4951237;28;20054;-71
2021/07/12 05:58:14;;;;;;;7.47;5.07;;;14.30;93.90;;;;;;4969974;28;20051;-71
2021/07/12 06:00:41;;;;;;;7.25;4.90;;;14.30;94.00;;;;;;4954273;28;20035;-71
2021/07/12 06:03:07;;;;;;;10.50;5.60;;;14.40;94.00;;;;;;4952996;28;20031;-71
2021/07/12 06:05:33;;;;;;;5.65;4.25;;;14.30;94.10;;;;;;4971497;28;20034;-71
2021/07/12 06:07:59;;;;;;;6.97;5.35;;;14.40;93.90;;;;;;4965981;28;21021;-72
2021/07/12 06:10:25;;;;;;;7.28;5.13;;;14.40;93.90;;;;;;4968031;28;20046;-71
2021/07/12 06:12:50;;;;;;;8.05;5.97;;;14.40;93.50;;;;;;4968318;28;20437;-71
2021/07/12 06:15:16;;;;;;;6.40;5.22;;;14.50;94.10;;;;;;4970214;28;20530;-72
2021/07/12 06:17:42;;;;;;;7.72;4.90;;;14.60;94.00;;;;;;4947656;28;20034;-72
2021/07/12 06:20:09;;;;;;;6.55;4.90;;;14.70;93.60;;;;;;4969921;28;20055;-73
2021/07/12 06:22:35;;;;;;;6.95;4.97;;;14.80;93.20;;;;;;4965521;28;20043;-73
2021/07/12 06:25:01;;;;;;;6.60;4.60;;;14.90;93.00;;;;;;4968245;28;20034;-73
2021/07/12 06:27:28;;;;;;;5.13;4.47;;;15.00;92.90;;;;;;4975058;28;20050;-73
2021/07/12 06:29:54;;;;;;;7.20;4.28;;;15.00;92.60;;;;;;4952688;28;20031;-73
2021/07/12 06:32:20;;;;;;;5.68;4.47;;;15.10;92.90;;;;;;4961991;28;20039;-73
2021/07/12 06:34:45;;;;;;;6.53;4.40;;;15.10;92.50;;;;;;4967047;28;20062;-73
2021/07/12 06:37:11;;;;;;;7.15;4.55;;;15.20;92.30;;;;;;4966991;28;20116;-73
2021/07/12 06:39:37;;;;;;;6.80;4.35;;;15.20;92.60;;;;;;4952504;28;20034;-73
2021/07/12 06:42:04;;;;;;;6.50;5.07;;;15.30;92.30;;;;;;4969646;28;20042;-73
2021/07/12 06:44:30;;;;;;;6.22;4.78;;;15.30;92.90;;;;;;4954441;28;20027;-73
2021/07/12 06:46:56;;;;;;;4.90;3.85;;;15.40;92.80;;;;;;4955789;28;20037;-74
2021/07/12 06:49:23;;;;;;;5.72;4.63;;;15.60;92.10;;;;;;4969763;28;20026;-74
2021/07/12 06:51:49;;;;;;;5.72;4.43;;;15.60;92.80;;;;;;4954925;28;20023;-74
2021/07/12 06:54:16;;;;;;;5.03;4.30;;;15.70;92.50;;;;;;4967003;28;20031;-75
2021/07/12 06:56:43;;;;;;;6.43;4.68;;;15.80;92.20;;;;;;4969019;28;20041;-74
2021/07/12 06:59:09;;;;;;;6.05;4.40;;;15.90;91.70;;;;;;4949714;28;20073;-75
2021/07/12 07:01:38;;;;;;;4.47;3.95;;;16.10;91.60;;;;;;4955110;28;20035;-74
2021/07/12 07:04:03;;;;;;;6.97;4.20;;;16.10;92.10;;;;;;4966851;28;20034;-71
2021/07/12 07:06:29;;;;;;;4.95;4.10;;;16.20;91.20;;;;;;4970521;28;20039;-72
2021/07/12 07:08:55;;;;;;;6.97;4.55;;;16.20;91.40;;;;;;4952805;28;20026;-71
2021/07/12 07:11:21;;;;;;;5.25;4.18;;;16.20;91.60;;;;;;4969740;28;20115;-72
2021/07/12 07:13:47;;;;;;;5.00;4.38;;;16.20;91.10;;;;;;4953526;28;20062;-73
2021/07/12 07:16:13;;;;;;;7.25;4.18;;;16.20;91.30;;;;;;4951788;28;20070;-73
2021/07/12 07:18:38;;;;;;;6.25;4.75;;;16.40;91.50;;;;;;4952643;28;20026;-73
2021/07/12 07:21:04;;;;;;;4.55;4.03;;;16.50;90.50;;;;;;4951470;28;20023;-73
2021/07/12 07:23:30;;;;;;;5.78;3.95;;;16.50;90.10;;;;;;4950753;28;20118;-72
2021/07/12 07:25:55;;;;;;;5.78;4.43;;;16.60;90.40;;;;;;4968801;28;20387;-72
2021/07/12 07:28:21;;;;;;;4.38;3.75;;;16.70;90.00;;;;;;4968616;28;20031;-73
2021/07/12 07:30:47;;;;;;;4.70;3.70;;;16.80;90.00;;;;;;4969247;28;20088;-73
2021/07/12 07:33:12;;;;;;;4.00;3.42;;;17.00;90.20;;;;;;4969123;28;20030;-73
2021/07/12 07:35:38;;;;;;;7.43;3.90;;;17.20;90.00;;;;;;4967745;28;20030;-72
2021/07/12 07:38:04;;;;;;;3.35;2.97;;;17.20;89.50;;;;;;4949893;28;20486;-72
2021/07/12 07:40:30;;;;;;;4.03;3.30;;;17.30;90.20;;;;;;4968242;28;20030;-72
2021/07/12 07:42:56;;;;;;;3.40;3.08;;;17.50;90.10;;;;;;4966093;28;20106;-72
2021/07/12 07:45:22;;;;;;;4.45;3.20;;;17.40;86.80;;;;;;4967283;28;20066;-73
2021/07/12 07:47:48;;;;;;;3.42;3.10;;;17.50;87.40;;;;;;4968573;28;20049;-72
2021/07/12 07:50:14;;;;;;;4.45;3.20;;;17.60;88.00;;;;;;4969529;28;20422;-73
2021/07/12 07:52:40;;;;;;;5.35;2.88;;;17.80;89.20;;;;;;4968242;28;20027;-73
2021/07/12 07:55:08;;;;;;;3.47;2.78;;;17.90;86.00;;;;;;4968059;28;20402;-73
2021/07/12 07:57:38;;;;;;;3.70;2.40;;;18.10;90.00;;;;;;4967706;28;20034;-73
2021/07/12 08:00:07;;;;;;;3.25;2.95;;;18.30;84.90;;;;;;4947219;28;20085;-72
2021/07/12 08:02:33;;;;;;;4.32;2.65;;;18.40;85.10;;;;;;4966182;28;20097;-73
2021/07/12 08:04:59;;;;;;;2.47;2.28;;;18.50;83.40;;;;;;4964808;28;20027;-73
2021/07/12 08:07:24;;;;;;;2.75;2.15;;;18.50;84.20;;;;;;4951163;28;20114;-73
2021/07/12 08:09:50;;;;;;;3.10;2.50;;;18.60;82.50;;;;;;4968218;28;20031;-73
2021/07/12 08:12:16;;;;;;;2.30;2.10;;;18.70;82.00;;;;;;4967961;28;20043;-72
2021/07/12 08:14:41;;;;;;;3.15;2.40;;;18.70;82.30;;;;;;4954178;28;20103;-72
2021/07/12 08:17:07;;;;;;;2.10;1.90;;;18.80;82.00;;;;;;4968401;28;20038;-72
2021/07/12 08:19:32;;;;;;;2.30;1.88;;;18.80;80.10;;;;;;4950587;28;20031;-73
2021/07/12 08:21:58;;;;;;;2.17;1.88;;;18.90;80.30;;;;;;4964002;28;20401;-73
2021/07/12 08:24:24;;;;;;;1.70;1.60;;;18.90;78.10;;;;;;4966170;28;20027;-72
2021/07/12 08:26:50;;;;;;;3.03;1.75;;;18.90;78.50;;;;;;4964381;28;20022;-73
2021/07/12 08:29:17;;;;;;;2.28;1.60;;;19.10;79.40;;;;;;4950460;28;20038;-72
2021/07/12 08:31:46;;;;;;;1.90;1.80;;;19.40;81.50;;;;;;4950494;28;20116;-72
2021/07/12 08:34:11;;;;;;;;;;;19.50;80.30;;;;;;4965793;28;20416;-73
2021/07/12 08:36:37;;;;;;;1.88;1.60;;;19.50;81.50;;;;;;4951480;28;19914;-73
2021/07/12 08:39:06;;;;;;;1.95;1.75;;;19.50;78.60;;;;;;4950101;28;20113;-72
2021/07/12 08:41:33;;;;;;;1.77;1.67;;;19.60;78.10;;;;;;4966615;28;20136;-73
2021/07/12 08:43:58;;;;;;;1.90;1.52;;;19.60;80.50;;;;;;4968209;28;20031;-72
2021/07/12 08:46:24;;;;;;;1.63;1.52;;;19.70;77.40;;;;;;4965647;28;20041;-72
2021/07/12 08:48:50;;;;;;;4.43;1.75;;;20.00;80.10;;;;;;4947799;29;20114;-72
2021/07/12 08:51:16;;;;;;;2.50;1.58;;;19.90;79.50;;;;;;4966866;28;20094;-72
2021/07/12 08:53:42;;;;;;;1.40;1.30;;;20.00;77.70;;;;;;4967801;28;20045;-74
2021/07/12 08:56:08;;;;;;;2.15;1.25;;;19.90;75.60;;;;;;4951725;28;20616;-72
2021/07/12 08:58:34;;;;;;;1.60;1.48;;;20.10;77.30;;;;;;4965154;28;20038;-72
2021/07/12 09:01:04;;;;;;;1.55;1.40;;;20.00;74.80;;;;;;4951871;28;20121;-73
2021/07/12 09:03:40;;;;;;;4.03;1.58;;;20.10;74.80;;;;;;4967326;28;20044;-73
2021/07/12 09:06:14;;;;;;;4.65;1.17;;;20.10;73.60;;;;;;4968460;28;20038;-73
2021/07/12 09:08:46;;;;;;;1.35;1.20;;;20.30;73.20;;;;;;4948136;28;20121;-72
2021/07/12 09:11:20;;;;;;;2.83;1.40;;;20.20;72.40;;;;;;4967666;28;20020;-72
2021/07/12 09:13:48;;;;;;;1.48;1.27;;;20.30;71.30;;;;;;4966538;28;20027;-72
2021/07/12 09:16:32;;;;;;;1.40;1.30;;;20.30;68.90;;;;;;4953574;28;20114;-74
2021/07/12 09:19:05;;;;;;;1.55;1.30;;;20.40;69.20;;;;;;4963136;28;20023;-72
2021/07/12 09:21:46;;;;;;;2.65;1.35;;;20.50;70.20;;;;;;4967025;28;20035;-73
2021/07/12 09:24:22;;;;;;;1.60;1.50;;;20.60;71.20;;;;;;4950059;28;20035;-72
2021/07/12 09:26:52;;;;;;;2.58;1.40;;;20.70;70.60;;;;;;4965605;28;20026;-73
2021/07/12 09:29:24;;;;;;;1.40;1.27;;;20.70;69.60;;;;;;4966108;28;20023;-73
2021/07/12 09:31:51;;;;;;;1.40;1.30;;;20.80;69.50;;;;;;4964287;28;20042;-73
2021/07/12 09:34:18;;;;;;;2.10;1.20;;;20.90;68.90;;;;;;4965930;28;20118;-73
2021/07/12 09:36:45;;;;;;;1.50;1.40;;;21.00;68.50;;;;;;4949978;28;20175;-72
2021/07/12 09:39:32;;;;;;;2.25;1.33;;;21.10;68.90;;;;;;4966687;28;20066;-73
2021/07/12 09:42:18;;;;;;;1.45;1.35;;;21.20;69.80;;;;;;4965594;28;20157;-73
2021/07/12 09:44:46;;;;;;;1.20;1.10;;;21.40;70.20;;;;;;4940976;28;20063;-73
2021/07/12 09:47:15;;;;;;;2.72;1.38;;;21.40;67.10;;;;;;4968191;28;20080;-73
2021/07/12 09:49:41;;;;;;;2.10;1.48;;;21.60;68.50;;;;;;4967405;28;20015;-73
2021/07/12 09:52:11;;;;;;;1.25;1.20;;;21.70;67.90;;;;;;4962919;28;20027;-73
2021/07/12 09:54:38;;;;;;;1.40;1.20;;;21.70;66.60;;;;;;4950155;28;20026;-72
2021/07/12 09:57:10;;;;;;;1.17;1.08;;;21.70;65.90;;;;;;4949563;28;20445;-73
2021/07/12 09:59:52;;;;;;;0.82;0.82;;;21.60;65.50;;;;;;4970719;28;20573;-72
2021/07/12 10:02:21;;;;;;;2.50;1.05;;;21.60;64.30;;;;;;4956405;28;20083;-72
2021/07/12 10:04:48;;;;;;;1.48;1.17;;;21.80;68.60;;;;;;4967809;28;20110;-73
2021/07/12 10:07:13;;;;;;;1.73;1.02;;;21.90;64.90;;;;;;4952838;28;20026;-73
2021/07/12 10:09:40;;;;;;;1.17;1.08;;;22.00;65.20;;;;;;4970739;28;20545;-73
2021/07/12 10:12:06;;;;;;;1.20;1.10;;;22.10;65.00;;;;;;4951054;28;20050;-73
2021/07/12 10:14:32;;;;;;;1.60;1.17;;;22.30;65.70;;;;;;4969411;28;20027;-72
2021/07/12 10:16:58;;;;;;;1.52;1.10;;;22.30;61.30;;;;;;4969349;28;20441;-73
2021/07/12 10:19:23;;;;;;;1.50;1.40;;;22.30;64.70;;;;;;4970887;28;20462;-73
2021/07/12 10:21:50;;;;;;;1.42;1.33;;;22.30;62.80;;;;;;4969499;28;20026;-73
2021/07/12 10:24:24;;;;;;;1.63;1.53;;;22.20;64.70;;;;;;4969614;28;20035;-73
2021/07/12 10:26:51;;;;;;;1.13;1.10;;;22.20;64.40;;;;;;4970658;28;20045;-72
2021/07/12 10:29:30;;;;;;;2.00;1.70;;;22.30;67.00;;;;;;4969557;28;20026;-72
2021/07/12 10:32:13;;;;;;;2.15;1.50;;;22.30;64.40;;;;;;4969658;28;20401;-72
2021/07/12 10:34:50;;;;;;;1.73;1.63;;;22.40;62.30;;;;;;4952876;28;20065;-73
2021/07/12 10:37:38;;;;;;;2.42;1.90;;;22.30;63.20;;;;;;4969750;28;20027;-73
2021/07/12 10:40:14;;;;;;;2.10;1.90;;;22.40;66.30;;;;;;4952686;28;20031;-72
2021/07/12 10:42:46;;;;;;;1.30;1.20;;;22.50;66.20;;;;;;4968579;28;20078;-72
2021/07/12 10:45:21;;;;;;;1.60;1.35;;;22.60;62.90;;;;;;4969147;28;20063;-73
2021/07/12 10:47:54;;;;;;;1.40;1.30;;;22.60;63.10;;;;;;4968507;28;20106;-73
2021/07/12 10:50:38;;;;;;;1.65;1.55;;;22.70;65.50;;;;;;4969627;28;20027;-73
2021/07/12 10:53:15;;;;;;;1.65;1.55;;;22.70;67.40;;;;;;4967890;28;20042;-74
2021/07/12 10:55:44;;;;;;;;;;;22.80;64.20;;;;;;4969281;28;20564;-74
2021/07/12 10:58:22;;;;;;;1.50;1.40;;;22.90;67.90;;;;;;4952178;28;19914;-73
2021/07/12 11:00:48;;;;;;;;;;;22.80;64.00;;;;;;4967619;28;20042;-74
2021/07/12 11:03:32;;;;;;;1.10;1.10;;;22.80;62.90;;;;;;4969100;28;19910;-74
2021/07/12 11:05:58;;;;;;;1.55;1.45;;;22.80;64.50;;;;;;4968533;28;20038;-74
2021/07/12 11:08:52;;;;;;;2.22;1.60;;;22.90;66.20;;;;;;4968099;28;20023;-76
2021/07/12 11:11:18;;;;;;;1.52;1.40;;;22.90;62.70;;;;;;4950748;28;20019;-74
2021/07/12 11:13:58;;;;;;;1.60;1.50;;;22.80;63.50;;;;;;4954084;28;20026;-74
2021/07/12 11:16:45;;;;;;;1.63;1.50;;;22.90;65.00;;;;;;4968444;28;20027;-74
2021/07/12 11:19:32;;;;;;;2.13;1.38;;;23.00;63.40;;;;;;4952046;28;20033;-73
2021/07/12 11:22:13;;;;;;;1.80;1.40;;;23.10;65.70;;;;;;4967517;28;20053;-74
2021/07/12 11:25:00;;;;;;;1.60;1.50;;;23.20;65.50;;;;;;4966206;28;20398;-74
2021/07/12 11:27:35;;;;;;;1.65;1.55;;;23.20;65.00;;;;;;4969534;28;20035;-72
2021/07/12 11:30:29;;;;;;;2.45;1.73;;;23.20;63.20;;;;;;4966831;28;20031;-73
2021/07/12 11:32:56;;;;;;;1.65;1.27;;;23.20;65.90;;;;;;4967961;28;20042;-74
2021/07/12 11:35:22;;;;;;;1.42;1.33;;;23.20;62.90;;;;;;4969226;28;20074;-73
2021/07/12 11:37:48;;;;;;;2.03;1.58;;;23.30;61.80;;;;;;4967854;28;20058;-72
2021/07/12 11:40:14;;;;;;;1.50;1.40;;;23.30;62.70;;;;;;4968017;28;20022;-74
2021/07/12 11:42:42;;;;;;;1.50;1.40;;;23.30;61.80;;;;;;4968382;28;20038;-74
2021/07/12 11:45:11;;;;;;;1.45;1.35;;;23.30;61.90;;;;;;4968537;28;20031;-74
2021/07/12 11:47:44;;;;;;;1.70;1.60;;;23.30;64.30;;;;;;4953229;28;20055;-74
2021/07/12 11:50:21;;;;;;;3.10;1.35;;;23.40;61.20;;;;;;4966598;28;20034;-74
2021/07/12 11:52:59;;;;;;;2.30;1.60;;;23.40;62.80;;;;;;4968309;28;20038;-73
2021/07/12 11:55:36;;;;;;;2.55;1.65;;;23.50;62.90;;;;;;4965899;28;20035;-73
2021/07/12 11:58:04;;;;;;;1.48;1.38;;;23.60;65.30;;;;;;4950925;28;20126;-74
2021/07/12 12:00:38;;;;;;;1.48;1.38;;;23.60;59.70;;;;;;4965958;28;20037;-74
2021/07/12 12:03:06;;;;;;;2.08;1.60;;;23.60;63.40;;;;;;4966984;28;20407;-74
2021/07/12 12:05:34;;;;;;;1.60;1.50;;;23.50;63.30;;;;;;4951228;28;20019;-73
2021/07/12 12:08:01;;;;;;;1.48;1.38;;;23.50;62.00;;;;;;4952056;28;20060;-74
2021/07/12 12:10:29;;;;;;;1.77;1.42;;;23.50;64.80;;;;;;4968340;28;20019;-74
2021/07/12 12:13:16;;;;;;;1.38;1.27;;;23.70;65.20;;;;;;4951774;28;20421;-74
2021/07/12 12:15:47;;;;;;;1.60;1.50;;;23.60;62.00;;;;;;4966262;28;20081;-74
2021/07/12 12:18:15;;;;;;;1.60;1.38;;;23.60;63.40;;;;;;4968637;28;20070;-74
2021/07/12 12:20:49;;;;;;;1.90;1.75;;;23.70;65.40;;;;;;4962982;28;20049;-74
2021/07/12 12:23:23;;;;;;;1.30;1.30;;;23.90;66.80;;;;;;4966549;28;20022;-74
2021/07/12 12:26:01;;;;;;;1.45;1.35;;;24.00;65.60;;;;;;4963280;28;20520;-74
2021/07/12 12:28:36;;;;;;;1.42;1.33;;;23.90;59.70;;;;;;4966783;28;20394;-74
2021/07/12 12:31:09;;;;;;;2.00;1.58;;;23.90;64.50;;;;;;4949115;28;20078;-73
2021/07/12 12:33:54;;;;;;;1.50;1.40;;;23.80;62.60;;;;;;4967560;28;20027;-73
2021/07/12 12:36:22;;;;;;;3.05;1.58;;;23.80;62.90;;;;;;4966736;28;20505;-73
2021/07/12 12:39:15;;;;;;;1.77;1.60;;;23.80;64.40;;;;;;4969139;28;20042;-74
2021/07/12 12:41:52;;;;;;;2.35;1.70;;;23.90;62.10;;;;;;4964291;28;20039;-74
2021/07/12 12:44:22;;;;;;;1.50;1.40;;;23.80;66.50;;;;;;4959734;28;20019;-74
2021/07/12 12:46:53;;;;;;;1.40;1.30;;;23.90;62.30;;;;;;4951387;28;20030;-74
2021/07/12 12:49:22;;;;;;;1.55;1.45;;;23.80;60.60;;;;;;4949904;28;20026;-74
2021/07/12 12:51:59;;;;;;;1.85;1.50;;;23.80;62.40;;;;;;4967386;28;20023;-74
2021/07/12 12:54:32;;;;;;;;;;;23.90;62.90;;;;;;4967518;28;20034;-74
2021/07/12 12:56:59;;;;;;;1.98;1.38;;;23.90;59.30;;;;;;4963636;28;19917;-74
2021/07/12 12:59:40;;;;;;;3.08;1.92;;;23.90;60.80;;;;;;4967554;28;20109;-74
2021/07/12 13:02:14;;;;;;;2.20;1.60;;;23.80;61.40;;;;;;4949795;28;20038;-73